createdAt,value
2023-02-08T00:01:23.919Z,92.63
2023-02-08T00:03:52.348Z,68.60
2023-02-08T00:06:20.457Z,89.63
2023-02-08T00:08:48.034Z,85.30
2023-02-08T00:11:15.349Z,74.87
2023-02-08T00:13:43.146Z,89.70
2023-02-08T00:16:13.313Z,104.73
2023-02-08T00:18:41.648Z,90.30
2023-02-08T00:21:15.629Z,101.47
2023-02-08T00:23:43.623Z,103.63
2023-02-08T00:26:11.266Z,104.97
2023-02-08T00:28:38.845Z,101.50
2023-02-08T00:31:06.958Z,83.33
2023-02-08T00:33:34.668Z,74.80
2023-02-08T00:36:05.524Z,84.63
2023-02-08T00:38:33.747Z,93.63
2023-02-08T00:41:01.336Z,78.63
2023-02-08T00:43:29.233Z,85.10
2023-02-08T00:45:59.369Z,92.43
2023-02-08T00:48:28.239Z,85.77
2023-02-08T00:51:05.125Z,94.73
2023-02-08T00:53:40.864Z,80.37
2023-02-08T00:56:09.840Z,91.47
2023-02-08T00:58:38.142Z,110.10
2023-02-08T01:01:07.826Z,115.53
2023-02-08T01:03:39.426Z,122.60
2023-02-08T01:06:11.228Z,120.73
2023-02-08T01:08:38.969Z,132.67
2023-02-08T01:11:10.815Z,106.13
2023-02-08T01:13:39.993Z,115.77
2023-02-08T01:16:21.285Z,105.57
2023-02-08T01:18:53.179Z,88.33
2023-02-08T01:21:25.150Z,80.70
2023-02-08T01:23:53.560Z,77.67
2023-02-08T01:26:22.996Z,77.53
2023-02-08T01:28:51.981Z,82.50
2023-02-08T01:31:24.431Z,90.47
2023-02-08T01:33:52.191Z,91.67
2023-02-08T01:36:19.785Z,76.60
2023-02-08T01:38:48.499Z,106.27
2023-02-08T01:41:26.372Z,101.87
2023-02-08T01:44:11.488Z,93.70
2023-02-08T01:46:42.460Z,95.87
2023-02-08T01:49:37.987Z,74.37
2023-02-08T01:52:20.939Z,73.50
2023-02-08T01:55:23.050Z,58.97
2023-02-08T01:57:56.569Z,63.77
2023-02-08T02:00:25.068Z,59.93
2023-02-08T02:02:56.909Z,75.90
2023-02-08T02:05:32.650Z,66.20
2023-02-08T02:08:00.671Z,74.53
2023-02-08T02:10:33.231Z,57.60
2023-02-08T02:13:13.784Z,58.57
2023-02-08T02:15:44.321Z,59.43
2023-02-08T02:18:18.043Z,59.03
2023-02-08T02:20:48.299Z,76.40
2023-02-08T02:23:53.517Z,70.53
2023-02-08T02:26:35.868Z,97.33
2023-02-08T02:29:14.680Z,108.43
2023-02-08T02:32:16.152Z,99.33
2023-02-08T02:35:26.259Z,87.93
2023-02-08T02:38:05.634Z,90.37
2023-02-08T02:41:14.225Z,82.77
2023-02-08T02:43:58.993Z,86.40
2023-02-08T02:46:43.814Z,89.10
2023-02-08T02:49:26.411Z,76.90
2023-02-08T02:52:27.936Z,81.97
2023-02-08T02:55:07.784Z,74.83
2023-02-08T02:57:36.696Z,76.10
2023-02-08T03:00:14.117Z,75.80
2023-02-08T03:02:42.233Z,72.83
2023-02-08T03:05:12.403Z,71.67
2023-02-08T03:08:07.236Z,82.03
2023-02-08T03:11:08.286Z,73.00
2023-02-08T03:14:12.030Z,77.97
2023-02-08T03:17:19.702Z,79.03
2023-02-08T03:19:57.059Z,82.13
2023-02-08T03:22:44.503Z,78.43
2023-02-08T03:25:27.667Z,82.00
2023-02-08T03:28:41.490Z,78.67
2023-02-08T03:31:42.077Z,83.03
2023-02-08T03:34:18.544Z,82.13
2023-02-08T03:37:04.470Z,80.17
2023-02-08T03:39:34.876Z,88.30
2023-02-08T03:42:12.461Z,87.37
2023-02-08T03:44:48.411Z,98.90
2023-02-08T03:47:25.141Z,95.43
2023-02-08T03:49:57.531Z,83.77
2023-02-08T03:52:26.703Z,84.63
2023-02-08T03:55:18.822Z,82.17
2023-02-08T03:58:26.260Z,83.73
2023-02-08T04:01:03.975Z,78.80
2023-02-08T04:03:34.051Z,82.80
2023-02-08T04:06:02.122Z,68.60
2023-02-08T04:08:29.476Z,75.83
2023-02-08T04:10:58.345Z,80.37
2023-02-08T04:13:27.131Z,88.97
2023-02-08T04:15:54.733Z,92.53
2023-02-08T04:18:22.638Z,80.67
2023-02-08T04:20:50.138Z,85.33
2023-02-08T04:23:17.399Z,79.23
2023-02-08T04:25:44.906Z,71.97
2023-02-08T04:28:12.253Z,76.83
2023-02-08T04:30:40.225Z,69.60
2023-02-08T04:33:07.687Z,73.47
2023-02-08T04:35:35.301Z,76.43
2023-02-08T04:38:02.572Z,79.90
2023-02-08T04:40:31.205Z,78.80
2023-02-08T04:42:58.562Z,74.30
2023-02-08T04:45:27.177Z,84.47
2023-02-08T04:47:54.449Z,74.40
2023-02-08T04:50:22.107Z,64.73
2023-02-08T04:52:49.331Z,70.83
2023-02-08T04:55:16.997Z,55.17
2023-02-08T04:57:44.249Z,56.03
2023-02-08T05:00:12.956Z,62.87
2023-02-08T05:02:40.229Z,57.53
2023-02-08T05:05:08.112Z,56.00
2023-02-08T05:07:35.401Z,58.13
2023-02-08T05:10:05.155Z,57.97
2023-02-08T05:12:32.511Z,53.07
2023-02-08T05:15:00.078Z,57.83
2023-02-08T05:17:27.354Z,56.63
2023-02-08T05:19:54.970Z,58.83
2023-02-08T05:22:22.315Z,52.93
2023-02-08T05:24:49.940Z,51.53
2023-02-08T05:27:17.256Z,55.13
2023-02-08T05:29:44.816Z,55.33
2023-02-08T05:32:13.094Z,62.00
2023-02-08T05:34:40.686Z,62.67
2023-02-08T05:37:08.047Z,61.03
2023-02-08T05:39:35.634Z,61.73
2023-02-08T05:42:02.987Z,65.20
2023-02-08T05:44:30.658Z,60.63
2023-02-08T05:46:57.929Z,61.20
2023-02-08T05:49:25.679Z,63.73
2023-02-08T05:51:53.328Z,59.90
2023-02-08T05:54:20.982Z,57.43
2023-02-08T05:56:48.369Z,60.90
2023-02-08T05:59:15.972Z,66.60
2023-02-08T06:01:43.229Z,65.90
2023-02-08T06:04:11.208Z,66.53
2023-02-08T06:06:38.553Z,69.33
2023-02-08T06:09:06.116Z,68.77
2023-02-08T06:11:34.202Z,65.23
2023-02-08T06:14:02.336Z,65.07
2023-02-08T06:16:30.064Z,65.13
2023-02-08T06:18:57.803Z,56.83
2023-02-08T06:21:25.119Z,60.63
2023-02-08T06:23:52.621Z,65.03
2023-02-08T06:26:20.051Z,66.07
2023-02-08T06:28:47.663Z,59.30
2023-02-08T06:31:14.930Z,61.60
2023-02-08T06:33:42.577Z,61.23
2023-02-08T06:36:10.031Z,59.00
2023-02-08T06:38:37.662Z,55.50
2023-02-08T06:41:05.117Z,57.53
2023-02-08T06:43:35.424Z,58.90
2023-02-08T06:46:05.029Z,61.17
2023-02-08T06:48:32.639Z,61.20
2023-02-08T06:50:59.992Z,59.37
2023-02-08T06:53:27.836Z,63.60
2023-02-08T06:55:55.417Z,64.33
2023-02-08T06:58:23.051Z,63.40
2023-02-08T07:00:50.448Z,60.87
2023-02-08T07:03:18.083Z,68.13
2023-02-08T07:06:02.522Z,68.70
2023-02-08T07:08:34.188Z,65.33
2023-02-08T07:11:11.787Z,64.43
2023-02-08T07:13:39.874Z,59.63
2023-02-08T07:16:09.900Z,60.63
2023-02-08T07:18:37.669Z,58.30
2023-02-08T07:21:05.387Z,63.90
2023-02-08T07:23:33.230Z,62.93
2023-02-08T07:26:07.664Z,61.27
2023-02-08T07:28:36.525Z,57.00
2023-02-08T07:31:13.808Z,58.30
2023-02-08T07:33:41.708Z,50.17
2023-02-08T07:36:10.857Z,50.87
2023-02-08T07:38:39.713Z,53.00
2023-02-08T07:41:10.815Z,55.67
2023-02-08T07:43:40.493Z,49.77
2023-02-08T07:46:17.206Z,57.50
2023-02-08T07:48:45.164Z,61.77
2023-02-08T07:51:13.497Z,58.80
2023-02-08T07:53:41.265Z,56.63
2023-02-08T07:56:14.643Z,62.67
2023-02-08T07:58:42.251Z,61.87
2023-02-08T08:01:21.516Z,55.37
2023-02-08T08:03:53.914Z,55.33
2023-02-08T08:06:22.870Z,57.43
2023-02-08T08:08:51.308Z,51.93
2023-02-08T08:11:20.776Z,49.63
2023-02-08T08:13:48.750Z,51.60
2023-02-08T08:16:16.463Z,50.53
2023-02-08T08:18:44.763Z,44.17
2023-02-08T08:21:13.177Z,41.63
2023-02-08T08:23:41.094Z,39.00
2023-02-08T08:26:18.302Z,37.23
2023-02-08T08:28:46.962Z,35.20
2023-02-08T08:31:18.663Z,40.70
2023-02-08T08:33:47.087Z,36.70
2023-02-08T08:36:15.379Z,34.53
2023-02-08T08:38:42.928Z,31.90
2023-02-08T08:41:14.929Z,33.00
2023-02-08T08:43:42.858Z,33.00
2023-02-08T08:46:10.751Z,31.10
2023-02-08T08:48:39.085Z,32.30
2023-02-08T08:51:07.188Z,32.22
2023-02-08T08:53:35.258Z,33.10
2023-02-08T08:56:03.252Z,35.22
2023-02-08T08:58:30.977Z,31.52
2023-02-08T09:01:00.352Z,30.73
2023-02-08T09:03:29.586Z,32.67
2023-02-08T09:05:57.296Z,35.53
2023-02-08T09:08:24.968Z,31.70
2023-02-08T09:10:52.353Z,32.30
2023-02-08T09:13:21.363Z,29.38
2023-02-08T09:15:50.132Z,30.65
2023-02-08T09:18:18.007Z,31.15
2023-02-08T09:20:45.738Z,29.40
2023-02-08T09:23:14.637Z,28.60
2023-02-08T09:25:42.130Z,27.00
2023-02-08T09:28:10.999Z,23.42
2023-02-08T09:30:38.345Z,26.65
2023-02-08T09:33:05.979Z,31.33
2023-02-08T09:35:33.447Z,27.50
2023-02-08T09:38:04.598Z,28.00
2023-02-08T09:40:52.038Z,25.30
2023-02-08T09:43:41.953Z,28.35
2023-02-08T09:46:18.466Z,24.85
2023-02-08T09:48:50.615Z,23.95
2023-02-08T09:51:50.085Z,25.20
2023-02-08T09:54:28.834Z,24.08
2023-02-08T09:56:59.897Z,25.67
2023-02-08T09:59:32.583Z,21.75
2023-02-08T10:02:31.460Z,20.77
2023-02-08T10:05:01.894Z,21.42
2023-02-08T10:07:31.174Z,22.35
2023-02-08T10:10:08.352Z,19.90
2023-02-08T10:12:55.019Z,22.23
2023-02-08T10:15:46.408Z,21.27
2023-02-08T10:18:47.136Z,25.10
2023-02-08T10:21:54.792Z,24.15
2023-02-08T10:24:36.930Z,20.05
2023-02-08T10:27:16.309Z,22.77
2023-02-08T10:30:45.416Z,20.45
2023-02-08T10:33:35.811Z,20.50
2023-02-08T10:36:12.203Z,19.77
2023-02-08T10:38:46.682Z,21.23
2023-02-08T10:41:32.492Z,20.98
2023-02-08T10:44:30.627Z,23.35
2023-02-08T10:47:06.885Z,23.00
2023-02-08T10:50:00.065Z,22.30
2023-02-08T10:52:28.085Z,24.60
2023-02-08T10:54:59.168Z,24.65
2023-02-08T10:57:35.673Z,24.92
2023-02-08T11:00:21.436Z,24.70
2023-02-08T11:02:53.237Z,27.30
2023-02-08T11:05:38.962Z,27.75
2023-02-08T11:08:20.758Z,28.50
2023-02-08T11:11:10.481Z,26.45
2023-02-08T11:13:51.510Z,23.77
2023-02-08T11:16:28.967Z,24.35
2023-02-08T11:19:02.429Z,20.27
2023-02-08T11:21:41.126Z,19.70
2023-02-08T11:24:08.644Z,21.83
2023-02-08T11:26:41.389Z,17.83
2023-02-08T11:29:19.804Z,18.75
2023-02-08T11:32:00.528Z,18.13
2023-02-08T11:34:38.905Z,20.10
2023-02-08T11:37:26.684Z,18.38
2023-02-08T11:39:58.113Z,19.75
2023-02-08T11:42:34.977Z,18.02
2023-02-08T11:45:03.419Z,17.20
2023-02-08T11:47:37.714Z,21.40
2023-02-08T11:50:09.111Z,20.25
2023-02-08T11:52:43.496Z,24.60
2023-02-08T11:55:19.757Z,17.38
2023-02-08T11:58:12.762Z,16.30
2023-02-08T12:00:41.326Z,15.98
2023-02-08T12:03:18.621Z,19.02
2023-02-08T12:06:40.805Z,18.83
2023-02-08T12:09:25.287Z,18.05
2023-02-08T12:12:09.000Z,16.95
2023-02-08T12:15:03.528Z,16.98
2023-02-08T12:17:41.944Z,28.33
2023-02-08T12:20:33.148Z,17.40
2023-02-08T12:23:00.416Z,15.50
2023-02-08T12:25:46.317Z,18.13
2023-02-08T12:28:23.010Z,17.95
2023-02-08T12:31:04.525Z,18.52
2023-02-08T12:34:01.411Z,14.50
2023-02-08T12:36:48.609Z,14.57
2023-02-08T12:40:02.414Z,16.35
2023-02-08T12:43:03.024Z,16.83
2023-02-08T12:46:19.286Z,20.20
2023-02-08T12:48:49.847Z,15.82
2023-02-08T12:51:53.549Z,18.98
2023-02-08T12:55:03.824Z,16.58
2023-02-08T12:57:33.242Z,16.92
2023-02-08T13:00:15.852Z,20.92
2023-02-08T13:02:57.749Z,18.60
2023-02-08T13:05:35.616Z,16.55
2023-02-08T13:08:30.153Z,17.60
2023-02-08T13:11:19.056Z,17.58
2023-02-08T13:14:00.750Z,21.15
2023-02-08T13:16:39.548Z,18.85
2023-02-08T13:19:34.491Z,20.60
2023-02-08T13:22:05.062Z,20.08
2023-02-08T13:24:39.132Z,20.02
2023-02-08T13:27:11.091Z,20.30
2023-02-08T13:29:38.804Z,22.05
2023-02-08T13:32:29.818Z,20.88
2023-02-08T13:35:16.263Z,21.58
2023-02-08T13:37:54.601Z,21.80
2023-02-08T13:40:28.603Z,21.40
2023-02-08T13:43:05.211Z,21.40
2023-02-08T13:45:42.497Z,20.05
2023-02-08T13:48:17.190Z,21.85
2023-02-08T13:50:57.033Z,23.33
2023-02-08T13:53:39.812Z,32.33
2023-02-08T13:56:13.052Z,32.20
2023-02-08T13:58:49.630Z,23.77
2023-02-08T14:01:30.620Z,33.58
2023-02-08T14:04:12.737Z,29.88
2023-02-08T14:06:54.111Z,26.65
2023-02-08T14:10:17.251Z,31.02
2023-02-08T14:13:09.304Z,27.58
2023-02-08T14:15:43.557Z,29.50
2023-02-08T14:18:27.170Z,27.40
2023-02-08T14:21:07.627Z,26.65
2023-02-08T14:23:40.487Z,29.98
2023-02-08T14:26:24.244Z,35.45
2023-02-08T14:28:59.968Z,30.60
2023-02-08T14:31:45.279Z,39.70
2023-02-08T14:34:38.163Z,43.97
2023-02-08T14:37:34.144Z,42.83
2023-02-08T14:40:24.906Z,40.22
2023-02-08T14:43:01.529Z,50.55
2023-02-08T14:45:36.695Z,33.67
2023-02-08T14:48:10.064Z,37.90
2023-02-08T14:51:03.461Z,33.75
2023-02-08T14:53:42.494Z,35.40
2023-02-08T14:56:24.334Z,33.97
2023-02-08T14:59:15.356Z,30.20
2023-02-08T15:01:46.931Z,32.70
2023-02-08T15:04:18.438Z,36.60
2023-02-08T15:07:19.429Z,32.72
2023-02-08T15:09:47.564Z,34.90
2023-02-08T15:12:35.871Z,32.63
2023-02-08T15:15:05.567Z,32.75
2023-02-08T15:17:41.465Z,29.92
2023-02-08T15:20:26.148Z,31.08
2023-02-08T15:23:21.649Z,29.40
2023-02-08T15:26:04.982Z,28.15
2023-02-08T15:28:36.478Z,26.52
2023-02-08T15:31:15.043Z,29.13
2023-02-08T15:33:43.849Z,28.60
2023-02-08T15:36:36.704Z,28.00
2023-02-08T15:39:23.248Z,26.88
2023-02-08T15:41:51.281Z,26.00
2023-02-08T15:44:26.102Z,27.02
2023-02-08T15:46:55.306Z,26.10
2023-02-08T15:49:35.734Z,31.75
2023-02-08T15:52:05.971Z,24.70
2023-02-08T15:54:33.853Z,29.50
2023-02-08T15:57:54.037Z,28.83
2023-02-08T16:00:34.878Z,31.63
2023-02-08T16:03:18.173Z,41.92
2023-02-08T16:05:59.701Z,45.13
2023-02-08T16:08:32.997Z,43.05
2023-02-08T16:11:20.241Z,40.80
2023-02-08T16:13:52.888Z,37.67
2023-02-08T16:16:40.022Z,49.55
2023-02-08T16:19:29.929Z,42.50
2023-02-08T16:22:15.849Z,48.50
2023-02-08T16:24:43.640Z,54.42
2023-02-08T16:27:27.525Z,51.38
2023-02-08T16:29:55.696Z,63.75
2023-02-08T16:32:37.017Z,65.10
2023-02-08T16:35:29.662Z,62.55
2023-02-08T16:38:02.941Z,59.20
2023-02-08T16:40:54.124Z,59.88
2023-02-08T16:43:26.117Z,51.83
2023-02-08T16:46:12.431Z,49.25
2023-02-08T16:48:49.129Z,44.97
2023-02-08T16:51:26.622Z,42.17
2023-02-08T16:54:07.028Z,39.95
2023-02-08T16:56:41.500Z,35.13
2023-02-08T16:59:11.379Z,39.60
2023-02-08T17:01:39.973Z,33.25
2023-02-08T17:04:07.388Z,37.47
2023-02-08T17:06:38.557Z,41.05
2023-02-08T17:09:09.205Z,32.58
2023-02-08T17:11:37.457Z,43.90
2023-02-08T17:14:06.103Z,48.55
2023-02-08T17:16:36.465Z,44.00
2023-02-08T17:19:05.528Z,48.08
2023-02-08T17:21:33.530Z,52.10
2023-02-08T17:24:01.884Z,60.33
2023-02-08T17:26:45.878Z,49.60
2023-02-08T17:29:13.919Z,59.72
2023-02-08T17:31:41.751Z,46.95
2023-02-08T17:34:09.141Z,40.60
2023-02-08T17:36:37.872Z,48.88
2023-02-08T17:39:06.606Z,41.95
2023-02-08T17:41:35.502Z,42.10
2023-02-08T17:44:04.285Z,38.78
2023-02-08T17:46:32.693Z,33.67
2023-02-08T17:49:01.880Z,36.75
2023-02-08T17:51:30.813Z,39.70
2023-02-08T17:53:58.314Z,39.03
2023-02-08T17:56:28.757Z,36.90
2023-02-08T17:58:56.454Z,41.90
2023-02-08T18:01:27.231Z,49.50
2023-02-08T18:03:55.277Z,37.33
2023-02-08T18:06:25.148Z,57.53
2023-02-08T18:08:54.682Z,54.70
2023-02-08T18:11:24.219Z,62.43
2023-02-08T18:13:54.489Z,56.60
2023-02-08T18:16:28.868Z,66.13
2023-02-08T18:18:59.572Z,58.27
2023-02-08T18:21:30.235Z,63.33
2023-02-08T18:24:04.924Z,46.10
2023-02-08T18:26:34.681Z,43.73
2023-02-08T18:29:03.001Z,57.67
2023-02-08T18:31:31.894Z,53.80
2023-02-08T18:33:59.402Z,51.13
2023-02-08T18:36:27.123Z,59.07
2023-02-08T18:38:55.890Z,49.57
2023-02-08T18:41:27.734Z,55.30
2023-02-08T18:43:57.724Z,54.90
2023-02-08T18:46:29.081Z,58.07
2023-02-08T18:48:56.657Z,63.77
2023-02-08T18:51:26.409Z,61.47
2023-02-08T18:53:55.828Z,54.57
2023-02-08T18:56:27.419Z,47.90
2023-02-08T18:58:59.961Z,45.33
2023-02-08T19:01:27.900Z,41.00
2023-02-08T19:03:56.131Z,36.87
2023-02-08T19:06:28.670Z,43.20
2023-02-08T19:08:59.271Z,39.47
2023-02-08T19:11:41.786Z,48.20
2023-02-08T19:14:14.794Z,50.10
2023-02-08T19:16:43.272Z,52.13
2023-02-08T19:19:11.044Z,57.30
2023-02-08T19:21:39.585Z,61.73
2023-02-08T19:24:07.587Z,58.67
2023-02-08T19:26:40.007Z,60.83
2023-02-08T19:29:13.560Z,60.93
2023-02-08T19:31:42.895Z,68.27
2023-02-08T19:34:11.852Z,63.20
2023-02-08T19:36:49.632Z,71.77
2023-02-08T19:39:22.382Z,63.83
2023-02-08T19:41:52.819Z,60.40
2023-02-08T19:44:21.923Z,67.13
2023-02-08T19:46:52.893Z,58.27
2023-02-08T19:49:22.678Z,61.20
2023-02-08T19:51:50.304Z,49.73
2023-02-08T19:54:20.061Z,41.43
2023-02-08T19:56:50.352Z,48.17
2023-02-08T19:59:26.913Z,47.30
2023-02-08T20:01:55.512Z,53.43
2023-02-08T20:04:24.452Z,46.93
2023-02-08T20:06:54.255Z,53.77
2023-02-08T20:09:22.779Z,47.77
2023-02-08T20:11:59.729Z,44.70
2023-02-08T20:14:30.507Z,49.27
2023-02-08T20:16:59.452Z,48.90
2023-02-08T20:19:27.022Z,53.27
2023-02-08T20:21:54.874Z,46.63
2023-02-08T20:24:22.335Z,54.80
2023-02-08T20:26:50.638Z,57.57
2023-02-08T20:29:18.766Z,64.43
2023-02-08T20:31:53.662Z,60.43
2023-02-08T20:34:21.681Z,53.17
2023-02-08T20:37:05.812Z,53.43
2023-02-08T20:39:35.982Z,58.10
2023-02-08T20:42:04.116Z,48.97
2023-02-08T20:44:31.965Z,45.57
2023-02-08T20:46:59.671Z,49.00
2023-02-08T20:49:27.134Z,47.47
2023-02-08T20:51:55.259Z,46.07
2023-02-08T20:54:26.664Z,53.57
2023-02-08T20:56:54.673Z,44.20
2023-02-08T20:59:23.463Z,44.43
2023-02-08T21:01:51.939Z,42.20
2023-02-08T21:04:23.309Z,45.30
2023-02-08T21:06:52.179Z,44.67
2023-02-08T21:09:20.512Z,45.13
2023-02-08T21:11:48.235Z,43.80
2023-02-08T21:14:21.029Z,40.63
2023-02-08T21:16:51.916Z,46.97
2023-02-08T21:19:20.856Z,45.50
2023-02-08T21:21:58.496Z,44.93
2023-02-08T21:24:26.559Z,41.77
2023-02-08T21:26:56.793Z,43.13
2023-02-08T21:29:25.311Z,50.47
2023-02-08T21:31:57.592Z,53.60
2023-02-08T21:34:25.090Z,50.23
2023-02-08T21:36:52.868Z,52.23
2023-02-08T21:39:20.426Z,52.27
2023-02-08T21:41:51.876Z,49.40
2023-02-08T21:44:19.441Z,55.67
2023-02-08T21:46:46.997Z,49.13
2023-02-08T21:49:33.094Z,56.73
2023-02-08T21:52:19.515Z,58.60
2023-02-08T21:54:53.146Z,57.77
2023-02-08T21:57:24.360Z,60.80
2023-02-08T21:59:57.122Z,59.80
2023-02-08T22:02:28.815Z,70.47
2023-02-08T22:05:01.282Z,68.33
2023-02-08T22:07:43.846Z,68.93
2023-02-08T22:10:13.835Z,69.80
2023-02-08T22:12:42.054Z,69.00
2023-02-08T22:15:13.092Z,77.63
2023-02-08T22:17:40.678Z,81.60
2023-02-08T22:20:09.802Z,91.27
2023-02-08T22:22:37.814Z,78.13
2023-02-08T22:25:05.911Z,88.07
2023-02-08T22:27:33.605Z,84.50
2023-02-08T22:30:00.870Z,83.30
2023-02-08T22:32:28.459Z,99.50
2023-02-08T22:34:55.932Z,116.20
2023-02-08T22:37:23.978Z,137.17
2023-02-08T22:39:51.375Z,133.03
2023-02-08T22:42:19.126Z,137.97
2023-02-08T22:44:46.456Z,151.17
2023-02-08T22:47:14.401Z,185.37
2023-02-08T22:49:41.833Z,146.67
2023-02-08T22:52:10.212Z,113.90
2023-02-08T22:54:37.809Z,103.67
2023-02-08T22:57:09.795Z,95.73
2023-02-08T22:59:40.506Z,77.37
2023-02-08T23:02:08.231Z,88.07
2023-02-08T23:04:37.787Z,86.40
2023-02-08T23:07:05.709Z,85.10
2023-02-08T23:09:33.058Z,87.57
2023-02-08T23:12:00.711Z,81.57
2023-02-08T23:14:28.341Z,86.17
2023-02-08T23:16:56.405Z,96.33
2023-02-08T23:19:24.220Z,124.00
2023-02-08T23:21:52.008Z,105.97
2023-02-08T23:24:19.537Z,90.73
2023-02-08T23:26:47.831Z,104.53
2023-02-08T23:29:15.155Z,98.33
2023-02-08T23:31:42.915Z,92.90
2023-02-08T23:34:11.547Z,85.90
2023-02-08T23:36:39.766Z,91.80
2023-02-08T23:39:08.182Z,86.57
2023-02-08T23:41:36.267Z,82.60
2023-02-08T23:44:04.327Z,90.87
2023-02-08T23:46:32.518Z,78.87
2023-02-08T23:48:59.951Z,83.80
2023-02-08T23:51:27.741Z,82.17
2023-02-08T23:53:55.393Z,81.13
2023-02-08T23:56:28.933Z,77.30
2023-02-08T23:58:59.052Z,76.90
